sensor_id;sensor_type;location;lat;lon;timestamp;temperature;humidity
14359;DHT22;7263;49.418;11.064;2023-06-14T00:02:26;16.50;92.40
14359;DHT22;7263;49.418;11.064;2023-06-14T00:04:52;16.50;92.50
14359;DHT22;7263;49.418;11.064;2023-06-14T00:07:35;16.50;92.50
14359;DHT22;7263;49.418;11.064;2023-06-14T00:10:06;16.40;92.80
14359;DHT22;7263;49.418;11.064;2023-06-14T00:12:33;16.40;92.70
14359;DHT22;7263;49.418;11.064;2023-06-14T00:14:59;16.40;92.90
14359;DHT22;7263;49.418;11.064;2023-06-14T00:19:57;16.30;93.20
14359;DHT22;7263;49.418;11.064;2023-06-14T00:22:24;16.30;93.40
14359;DHT22;7263;49.418;11.064;2023-06-14T00:24:51;16.20;93.50
14359;DHT22;7263;49.418;11.064;2023-06-14T00:27:23;16.10;93.70
14359;DHT22;7263;49.418;11.064;2023-06-14T00:29:50;16.10;93.70
14359;DHT22;7263;49.418;11.064;2023-06-14T00:32:18;16.10;93.70
14359;DHT22;7263;49.418;11.064;2023-06-14T00:34:53;16.00;94.00
14359;DHT22;7263;49.418;11.064;2023-06-14T00:39:58;15.80;94.30
14359;DHT22;7263;49.418;11.064;2023-06-14T00:42:27;15.80;94.90
14359;DHT22;7263;49.418;11.064;2023-06-14T00:44:54;15.70;95.00
14359;DHT22;7263;49.418;11.064;2023-06-14T00:47:22;15.60;95.10
14359;DHT22;7263;49.418;11.064;2023-06-14T00:49:49;15.50;95.50
14359;DHT22;7263;49.418;11.064;2023-06-14T00:52:17;15.40;95.70
14359;DHT22;7263;49.418;11.064;2023-06-14T00:54:44;15.30;96.10
14359;DHT22;7263;49.418;11.064;2023-06-14T00:57:12;15.10;96.70
14359;DHT22;7263;49.418;11.064;2023-06-14T00:59:44;15.10;96.80
14359;DHT22;7263;49.418;11.064;2023-06-14T01:02:12;15.00;96.80
14359;DHT22;7263;49.418;11.064;2023-06-14T01:04:45;14.90;97.50
14359;DHT22;7263;49.418;11.064;2023-06-14T01:07:23;14.80;97.80
14359;DHT22;7263;49.418;11.064;2023-06-14T01:10:03;14.90;97.90
14359;DHT22;7263;49.418;11.064;2023-06-14T01:12:39;14.80;98.20
14359;DHT22;7263;49.418;11.064;2023-06-14T01:15:10;14.80;98.50
14359;DHT22;7263;49.418;11.064;2023-06-14T01:17:42;14.80;98.70
14359;DHT22;7263;49.418;11.064;2023-06-14T01:20:12;14.80;98.90
14359;DHT22;7263;49.418;11.064;2023-06-14T01:22:50;15.00;99.30
14359;DHT22;7263;49.418;11.064;2023-06-14T01:25:17;14.70;99.20
14359;DHT22;7263;49.418;11.064;2023-06-14T01:27:55;14.70;99.30
14359;DHT22;7263;49.418;11.064;2023-06-14T01:30:25;14.70;99.80
14359;DHT22;7263;49.418;11.064;2023-06-14T01:32:54;14.70;99.90
14359;DHT22;7263;49.418;11.064;2023-06-14T01:35:22;14.60;99.90
14359;DHT22;7263;49.418;11.064;2023-06-14T01:37:56;14.70;99.90
14359;DHT22;7263;49.418;11.064;2023-06-14T01:40:25;14.60;99.90
14359;DHT22;7263;49.418;11.064;2023-06-14T01:42:55;14.60;99.90
14359;DHT22;7263;49.418;11.064;2023-06-14T01:45:22;14.60;99.90
14359;DHT22;7263;49.418;11.064;2023-06-14T01:47:53;14.50;99.90
14359;DHT22;7263;49.418;11.064;2023-06-14T01:50:20;14.50;99.90
14359;DHT22;7263;49.418;11.064;2023-06-14T01:52:47;14.30;99.90
14359;DHT22;7263;49.418;11.064;2023-06-14T01:55:15;14.40;99.90
14359;DHT22;7263;49.418;11.064;2023-06-14T01:57:45;14.40;99.90
14359;DHT22;7263;49.418;11.064;2023-06-14T02:00:20;14.30;99.90
14359;DHT22;7263;49.418;11.064;2023-06-14T02:02:47;14.20;99.90
14359;DHT22;7263;49.418;11.064;2023-06-14T02:05:14;14.10;99.90
14359;DHT22;7263;49.418;11.064;2023-06-14T02:07:46;14.20;99.90
14359;DHT22;7263;49.418;11.064;2023-06-14T02:10:14;14.20;99.90
14359;DHT22;7263;49.418;11.064;2023-06-14T02:12:46;14.20;99.90
14359;DHT22;7263;49.418;11.064;2023-06-14T02:15:16;14.00;99.90
14359;DHT22;7263;49.418;11.064;2023-06-14T02:17:46;14.00;99.90
14359;DHT22;7263;49.418;11.064;2023-06-14T02:20:15;14.00;99.90
14359;DHT22;7263;49.418;11.064;2023-06-14T02:22:48;14.00;99.90
14359;DHT22;7263;49.418;11.064;2023-06-14T02:25:24;14.00;99.90
14359;DHT22;7263;49.418;11.064;2023-06-14T02:27:53;13.90;99.90
14359;DHT22;7263;49.418;11.064;2023-06-14T02:32:47;13.90;99.90
14359;DHT22;7263;49.418;11.064;2023-06-14T02:35:16;13.80;99.90
14359;DHT22;7263;49.418;11.064;2023-06-14T02:37:46;13.80;99.90
14359;DHT22;7263;49.418;11.064;2023-06-14T02:40:13;13.70;99.90
14359;DHT22;7263;49.418;11.064;2023-06-14T02:42:44;13.60;99.90
14359;DHT22;7263;49.418;11.064;2023-06-14T02:45:10;13.60;99.90
14359;DHT22;7263;49.418;11.064;2023-06-14T02:50:05;13.60;99.90
14359;DHT22;7263;49.418;11.064;2023-06-14T02:52:33;13.60;99.90
14359;DHT22;7263;49.418;11.064;2023-06-14T02:55:00;13.50;99.90
14359;DHT22;7263;49.418;11.064;2023-06-14T02:57:32;13.50;99.90
14359;DHT22;7263;49.418;11.064;2023-06-14T03:00:01;13.50;99.90
14359;DHT22;7263;49.418;11.064;2023-06-14T03:02:32;13.40;99.90
14359;DHT22;7263;49.418;11.064;2023-06-14T03:04:59;13.40;99.90
14359;DHT22;7263;49.418;11.064;2023-06-14T03:09:58;13.40;99.90
14359;DHT22;7263;49.418;11.064;2023-06-14T03:12:27;13.30;99.90
14359;DHT22;7263;49.418;11.064;2023-06-14T03:17:29;13.20;99.90
14359;DHT22;7263;49.418;11.064;2023-06-14T03:20:01;13.30;99.90
14359;DHT22;7263;49.418;11.064;2023-06-14T03:22:28;13.30;99.90
14359;DHT22;7263;49.418;11.064;2023-06-14T03:27:26;13.30;99.90
14359;DHT22;7263;49.418;11.064;2023-06-14T03:32:21;13.40;99.90
14359;DHT22;7263;49.418;11.064;2023-06-14T03:34:51;13.40;99.90
14359;DHT22;7263;49.418;11.064;2023-06-14T03:37:19;13.40;99.90
14359;DHT22;7263;49.418;11.064;2023-06-14T03:39:46;13.40;99.90
14359;DHT22;7263;49.418;11.064;2023-06-14T03:42:13;13.20;99.90
14359;DHT22;7263;49.418;11.064;2023-06-14T03:44:40;13.30;99.90
14359;DHT22;7263;49.418;11.064;2023-06-14T03:52:04;13.50;99.90
14359;DHT22;7263;49.418;11.064;2023-06-14T03:56:58;13.70;99.90
14359;DHT22;7263;49.418;11.064;2023-06-14T04:01:55;14.00;99.90
14359;DHT22;7263;49.418;11.064;2023-06-14T04:04:22;14.00;99.90
14359;DHT22;7263;49.418;11.064;2023-06-14T04:06:54;14.10;99.90
14359;DHT22;7263;49.418;11.064;2023-06-14T04:09:23;13.90;99.90
14359;DHT22;7263;49.418;11.064;2023-06-14T04:11:52;14.00;99.90
14359;DHT22;7263;49.418;11.064;2023-06-14T04:14:23;14.20;99.90
14359;DHT22;7263;49.418;11.064;2023-06-14T04:16:50;14.20;99.90
14359;DHT22;7263;49.418;11.064;2023-06-14T04:26:59;14.70;99.90
14359;DHT22;7263;49.418;11.064;2023-06-14T04:29:26;14.70;99.90
14359;DHT22;7263;49.418;11.064;2023-06-14T04:31:55;14.90;99.90
14359;DHT22;7263;49.418;11.064;2023-06-14T04:34:32;15.00;99.90
14359;DHT22;7263;49.418;11.064;2023-06-14T04:36:59;15.00;99.90
14359;DHT22;7263;49.418;11.064;2023-06-14T04:39:27;15.10;99.90
14359;DHT22;7263;49.418;11.064;2023-06-14T04:44:24;15.40;99.90
14359;DHT22;7263;49.418;11.064;2023-06-14T04:46:58;15.40;99.90
14359;DHT22;7263;49.418;11.064;2023-06-14T04:49:28;15.50;99.90
14359;DHT22;7263;49.418;11.064;2023-06-14T04:51:57;15.70;99.90
14359;DHT22;7263;49.418;11.064;2023-06-14T04:54:27;15.80;99.90
14359;DHT22;7263;49.418;11.064;2023-06-14T04:56:57;15.70;99.90
14359;DHT22;7263;49.418;11.064;2023-06-14T04:59:25;15.70;99.90
14359;DHT22;7263;49.418;11.064;2023-06-14T05:01:52;15.60;99.90
14359;DHT22;7263;49.418;11.064;2023-06-14T05:04:19;15.70;99.90
14359;DHT22;7263;49.418;11.064;2023-06-14T05:09:16;15.70;99.90
14359;DHT22;7263;49.418;11.064;2023-06-14T05:11:55;15.70;99.90
14359;DHT22;7263;49.418;11.064;2023-06-14T05:14:31;15.80;99.90
14359;DHT22;7263;49.418;11.064;2023-06-14T05:16:57;15.80;99.90
14359;DHT22;7263;49.418;11.064;2023-06-14T05:21:52;15.90;99.90
14359;DHT22;7263;49.418;11.064;2023-06-14T05:24:19;15.80;99.90
14359;DHT22;7263;49.418;11.064;2023-06-14T05:31:42;16.40;99.90
14359;DHT22;7263;49.418;11.064;2023-06-14T05:34:10;16.70;99.90
14359;DHT22;7263;49.418;11.064;2023-06-14T05:36:36;16.80;99.90
14359;DHT22;7263;49.418;11.064;2023-06-14T05:39:07;17.00;99.90
14359;DHT22;7263;49.418;11.064;2023-06-14T05:41:34;17.10;99.90
14359;DHT22;7263;49.418;11.064;2023-06-14T05:44:01;17.00;99.90
14359;DHT22;7263;49.418;11.064;2023-06-14T05:46:28;17.00;99.90
14359;DHT22;7263;49.418;11.064;2023-06-14T05:48:58;16.90;99.90
14359;DHT22;7263;49.418;11.064;2023-06-14T05:51:25;16.90;99.90
14359;DHT22;7263;49.418;11.064;2023-06-14T05:53:55;16.80;99.90
14359;DHT22;7263;49.418;11.064;2023-06-14T05:56:25;16.90;99.90
14359;DHT22;7263;49.418;11.064;2023-06-14T05:58:55;16.90;99.90
14359;DHT22;7263;49.418;11.064;2023-06-14T06:01:24;16.90;99.90
14359;DHT22;7263;49.418;11.064;2023-06-14T06:03:52;17.20;99.90
14359;DHT22;7263;49.418;11.064;2023-06-14T06:06:22;17.20;99.90
14359;DHT22;7263;49.418;11.064;2023-06-14T06:08:58;17.50;99.90
14359;DHT22;7263;49.418;11.064;2023-06-14T06:11:27;17.80;99.90
14359;DHT22;7263;49.418;11.064;2023-06-14T06:13:54;17.80;99.90
14359;DHT22;7263;49.418;11.064;2023-06-14T06:16:21;18.00;99.90
14359;DHT22;7263;49.418;11.064;2023-06-14T06:18:53;18.10;99.90
14359;DHT22;7263;49.418;11.064;2023-06-14T06:21:22;18.10;99.90
14359;DHT22;7263;49.418;11.064;2023-06-14T06:23:48;18.20;99.90
14359;DHT22;7263;49.418;11.064;2023-06-14T06:26:15;18.30;99.90
14359;DHT22;7263;49.418;11.064;2023-06-14T06:28:42;18.40;99.90
14359;DHT22;7263;49.418;11.064;2023-06-14T06:31:09;18.40;99.90
14359;DHT22;7263;49.418;11.064;2023-06-14T06:33:36;18.60;99.90
14359;DHT22;7263;49.418;11.064;2023-06-14T06:36:11;18.90;99.90
14359;DHT22;7263;49.418;11.064;2023-06-14T06:38:42;19.00;99.90
14359;DHT22;7263;49.418;11.064;2023-06-14T06:41:08;19.40;99.90
14359;DHT22;7263;49.418;11.064;2023-06-14T06:43:35;19.70;99.90
14359;DHT22;7263;49.418;11.064;2023-06-14T06:46:08;19.80;99.80
14359;DHT22;7263;49.418;11.064;2023-06-14T06:48:41;19.90;99.90
14359;DHT22;7263;49.418;11.064;2023-06-14T06:51:11;20.10;99.90
14359;DHT22;7263;49.418;11.064;2023-06-14T06:53:43;19.90;99.90
14359;DHT22;7263;49.418;11.064;2023-06-14T06:56:10;20.20;98.80
14359;DHT22;7263;49.418;11.064;2023-06-14T06:58:37;20.20;99.00
14359;DHT22;7263;49.418;11.064;2023-06-14T07:01:06;20.40;99.50
14359;DHT22;7263;49.418;11.064;2023-06-14T07:03:35;20.30;98.50
14359;DHT22;7263;49.418;11.064;2023-06-14T07:06:05;20.50;98.90
14359;DHT22;7263;49.418;11.064;2023-06-14T07:08:32;20.60;98.40
14359;DHT22;7263;49.418;11.064;2023-06-14T07:11:01;20.70;98.10
14359;DHT22;7263;49.418;11.064;2023-06-14T07:13:28;20.90;98.60
14359;DHT22;7263;49.418;11.064;2023-06-14T07:15:57;21.10;97.80
14359;DHT22;7263;49.418;11.064;2023-06-14T07:18:25;21.20;97.60
14359;DHT22;7263;49.418;11.064;2023-06-14T07:20:52;21.40;96.90
14359;DHT22;7263;49.418;11.064;2023-06-14T07:23:19;21.50;97.10
14359;DHT22;7263;49.418;11.064;2023-06-14T07:25:46;21.90;95.80
14359;DHT22;7263;49.418;11.064;2023-06-14T07:28:14;21.70;95.50
14359;DHT22;7263;49.418;11.064;2023-06-14T07:30:44;21.70;95.20
14359;DHT22;7263;49.418;11.064;2023-06-14T07:33:10;21.80;95.00
14359;DHT22;7263;49.418;11.064;2023-06-14T07:35:37;21.90;94.60
14359;DHT22;7263;49.418;11.064;2023-06-14T07:38:08;21.80;94.40
14359;DHT22;7263;49.418;11.064;2023-06-14T07:40:42;21.60;95.00
14359;DHT22;7263;49.418;11.064;2023-06-14T07:43:09;21.90;94.90
14359;DHT22;7263;49.418;11.064;2023-06-14T07:45:39;22.10;94.40
14359;DHT22;7263;49.418;11.064;2023-06-14T07:48:11;22.40;94.60
14359;DHT22;7263;49.418;11.064;2023-06-14T07:50:41;22.40;93.60
14359;DHT22;7263;49.418;11.064;2023-06-14T07:53:08;22.70;94.30
14359;DHT22;7263;49.418;11.064;2023-06-14T07:55:35;23.00;93.30
14359;DHT22;7263;49.418;11.064;2023-06-14T07:58:12;22.70;93.00
14359;DHT22;7263;49.418;11.064;2023-06-14T08:00:47;22.50;93.10
14359;DHT22;7263;49.418;11.064;2023-06-14T08:03:15;22.60;93.20
14359;DHT22;7263;49.418;11.064;2023-06-14T08:05:45;22.60;93.10
14359;DHT22;7263;49.418;11.064;2023-06-14T08:08:14;22.60;93.10
14359;DHT22;7263;49.418;11.064;2023-06-14T08:10:41;22.50;92.60
14359;DHT22;7263;49.418;11.064;2023-06-14T08:13:10;22.50;92.50
14359;DHT22;7263;49.418;11.064;2023-06-14T08:15:45;22.30;92.00
14359;DHT22;7263;49.418;11.064;2023-06-14T08:18:13;22.60;92.70
14359;DHT22;7263;49.418;11.064;2023-06-14T08:20:40;22.80;91.30
14359;DHT22;7263;49.418;11.064;2023-06-14T08:23:07;22.70;90.60
14359;DHT22;7263;49.418;11.064;2023-06-14T08:25:38;22.90;90.60
14359;DHT22;7263;49.418;11.064;2023-06-14T08:28:05;23.10;90.50
14359;DHT22;7263;49.418;11.064;2023-06-14T08:30:37;22.90;89.60
14359;DHT22;7263;49.418;11.064;2023-06-14T08:33:04;22.50;90.30
14359;DHT22;7263;49.418;11.064;2023-06-14T08:35:32;22.70;90.00
14359;DHT22;7263;49.418;11.064;2023-06-14T08:38:02;22.80;89.40
14359;DHT22;7263;49.418;11.064;2023-06-14T08:40:30;22.60;88.90
14359;DHT22;7263;49.418;11.064;2023-06-14T08:42:57;22.70;89.60
14359;DHT22;7263;49.418;11.064;2023-06-14T08:45:25;22.80;89.90
14359;DHT22;7263;49.418;11.064;2023-06-14T08:48:08;23.00;87.90
14359;DHT22;7263;49.418;11.064;2023-06-14T08:50:36;23.30;89.80
14359;DHT22;7263;49.418;11.064;2023-06-14T08:53:08;23.30;88.40
14359;DHT22;7263;49.418;11.064;2023-06-14T08:55:38;23.00;87.60
14359;DHT22;7263;49.418;11.064;2023-06-14T08:58:06;22.90;88.80
14359;DHT22;7263;49.418;11.064;2023-06-14T09:00:35;23.20;88.30
14359;DHT22;7263;49.418;11.064;2023-06-14T09:03:03;23.30;88.60
14359;DHT22;7263;49.418;11.064;2023-06-14T09:05:39;23.30;88.10
14359;DHT22;7263;49.418;11.064;2023-06-14T09:08:06;22.80;85.10
14359;DHT22;7263;49.418;11.064;2023-06-14T09:10:33;22.30;86.20
14359;DHT22;7263;49.418;11.064;2023-06-14T09:13:02;22.20;88.20
14359;DHT22;7263;49.418;11.064;2023-06-14T09:15:30;22.10;88.60
14359;DHT22;7263;49.418;11.064;2023-06-14T09:18:01;22.10;88.60
14359;DHT22;7263;49.418;11.064;2023-06-14T09:20:31;21.90;87.80
14359;DHT22;7263;49.418;11.064;2023-06-14T09:23:00;21.90;89.30
14359;DHT22;7263;49.418;11.064;2023-06-14T09:25:27;21.90;88.40
14359;DHT22;7263;49.418;11.064;2023-06-14T09:27:54;21.90;90.00
14359;DHT22;7263;49.418;11.064;2023-06-14T09:30:21;21.90;89.50
14359;DHT22;7263;49.418;11.064;2023-06-14T09:32:48;21.70;89.70
14359;DHT22;7263;49.418;11.064;2023-06-14T09:35:17;21.50;88.10
14359;DHT22;7263;49.418;11.064;2023-06-14T09:37:47;21.50;88.70
14359;DHT22;7263;49.418;11.064;2023-06-14T09:40:20;21.50;88.60
14359;DHT22;7263;49.418;11.064;2023-06-14T09:42:47;21.50;88.40
14359;DHT22;7263;49.418;11.064;2023-06-14T09:45:15;21.40;89.40
14359;DHT22;7263;49.418;11.064;2023-06-14T09:47:48;21.40;90.00
14359;DHT22;7263;49.418;11.064;2023-06-14T09:50:15;21.40;89.90
14359;DHT22;7263;49.418;11.064;2023-06-14T09:52:43;21.40;90.30
14359;DHT22;7263;49.418;11.064;2023-06-14T09:55:20;21.50;89.50
14359;DHT22;7263;49.418;11.064;2023-06-14T09:57:49;21.50;89.80
14359;DHT22;7263;49.418;11.064;2023-06-14T10:00:18;21.50;90.00
14359;DHT22;7263;49.418;11.064;2023-06-14T10:02:48;21.60;89.90
14359;DHT22;7263;49.418;11.064;2023-06-14T10:05:19;21.60;89.10
14359;DHT22;7263;49.418;11.064;2023-06-14T10:07:55;21.70;87.90
14359;DHT22;7263;49.418;11.064;2023-06-14T10:10:28;21.70;87.10
14359;DHT22;7263;49.418;11.064;2023-06-14T10:12:56;21.70;87.00
14359;DHT22;7263;49.418;11.064;2023-06-14T10:15:32;21.70;87.50
14359;DHT22;7263;49.418;11.064;2023-06-14T10:18:10;22.10;88.30
14359;DHT22;7263;49.418;11.064;2023-06-14T10:20:45;22.80;87.70
14359;DHT22;7263;49.418;11.064;2023-06-14T10:23:18;23.60;87.00
14359;DHT22;7263;49.418;11.064;2023-06-14T10:25:49;24.40;85.50
14359;DHT22;7263;49.418;11.064;2023-06-14T10:28:21;24.70;83.90
14359;DHT22;7263;49.418;11.064;2023-06-14T10:31:06;24.60;85.60
14359;DHT22;7263;49.418;11.064;2023-06-14T10:33:48;24.10;87.00
14359;DHT22;7263;49.418;11.064;2023-06-14T10:36:29;23.50;86.10
14359;DHT22;7263;49.418;11.064;2023-06-14T10:39:00;22.80;86.90
14359;DHT22;7263;49.418;11.064;2023-06-14T10:41:28;22.60;88.30
14359;DHT22;7263;49.418;11.064;2023-06-14T10:44:37;22.20;86.50
14359;DHT22;7263;49.418;11.064;2023-06-14T10:47:11;21.90;85.00
14359;DHT22;7263;49.418;11.064;2023-06-14T10:49:52;21.80;87.00
14359;DHT22;7263;49.418;11.064;2023-06-14T10:52:23;21.80;86.90
14359;DHT22;7263;49.418;11.064;2023-06-14T10:55:06;21.80;87.10
14359;DHT22;7263;49.418;11.064;2023-06-14T10:57:41;21.80;87.90
14359;DHT22;7263;49.418;11.064;2023-06-14T11:00:15;21.90;87.90
14359;DHT22;7263;49.418;11.064;2023-06-14T11:03:18;22.00;88.50
14359;DHT22;7263;49.418;11.064;2023-06-14T11:06:13;22.20;87.50
14359;DHT22;7263;49.418;11.064;2023-06-14T11:09:09;22.20;86.60
14359;DHT22;7263;49.418;11.064;2023-06-14T11:11:42;22.20;86.60
14359;DHT22;7263;49.418;11.064;2023-06-14T11:14:10;22.20;86.10
14359;DHT22;7263;49.418;11.064;2023-06-14T11:16:40;22.20;86.70
14359;DHT22;7263;49.418;11.064;2023-06-14T11:19:10;22.10;87.00
14359;DHT22;7263;49.418;11.064;2023-06-14T11:21:40;22.10;86.60
14359;DHT22;7263;49.418;11.064;2023-06-14T11:24:13;22.20;86.60
14359;DHT22;7263;49.418;11.064;2023-06-14T11:26:42;22.40;85.30
14359;DHT22;7263;49.418;11.064;2023-06-14T11:29:09;22.70;85.80
14359;DHT22;7263;49.418;11.064;2023-06-14T11:31:46;23.00;84.80
14359;DHT22;7263;49.418;11.064;2023-06-14T11:34:13;23.10;83.30
14359;DHT22;7263;49.418;11.064;2023-06-14T11:36:40;23.10;83.90
14359;DHT22;7263;49.418;11.064;2023-06-14T11:39:08;23.00;85.10
14359;DHT22;7263;49.418;11.064;2023-06-14T11:41:37;23.00;85.80
14359;DHT22;7263;49.418;11.064;2023-06-14T11:44:05;22.80;84.70
14359;DHT22;7263;49.418;11.064;2023-06-14T11:46:35;22.70;85.70
14359;DHT22;7263;49.418;11.064;2023-06-14T11:49:09;22.50;85.80
14359;DHT22;7263;49.418;11.064;2023-06-14T11:51:36;22.40;86.90
14359;DHT22;7263;49.418;11.064;2023-06-14T11:54:04;22.40;85.80
14359;DHT22;7263;49.418;11.064;2023-06-14T11:56:32;22.40;86.30
14359;DHT22;7263;49.418;11.064;2023-06-14T11:58:59;22.60;87.10
14359;DHT22;7263;49.418;11.064;2023-06-14T12:01:30;22.90;85.50
14359;DHT22;7263;49.418;11.064;2023-06-14T12:04:00;23.40;85.40
14359;DHT22;7263;49.418;11.064;2023-06-14T12:06:29;23.50;86.00
14359;DHT22;7263;49.418;11.064;2023-06-14T12:08:58;23.30;84.80
14359;DHT22;7263;49.418;11.064;2023-06-14T12:11:32;23.30;85.00
14359;DHT22;7263;49.418;11.064;2023-06-14T12:13:59;23.40;85.40
14359;DHT22;7263;49.418;11.064;2023-06-14T12:16:31;23.50;84.80
14359;DHT22;7263;49.418;11.064;2023-06-14T12:19:00;23.70;85.40
14359;DHT22;7263;49.418;11.064;2023-06-14T12:21:32;23.90;84.80
14359;DHT22;7263;49.418;11.064;2023-06-14T12:24:04;24.20;83.50
14359;DHT22;7263;49.418;11.064;2023-06-14T12:26:37;24.10;80.80
14359;DHT22;7263;49.418;11.064;2023-06-14T12:29:05;24.00;81.30
14359;DHT22;7263;49.418;11.064;2023-06-14T12:31:35;23.80;81.50
14359;DHT22;7263;49.418;11.064;2023-06-14T12:34:04;23.30;80.60
14359;DHT22;7263;49.418;11.064;2023-06-14T12:36:33;23.00;81.60
14359;DHT22;7263;49.418;11.064;2023-06-14T12:39:01;22.70;83.10
14359;DHT22;7263;49.418;11.064;2023-06-14T12:41:31;22.70;84.20
14359;DHT22;7263;49.418;11.064;2023-06-14T12:43:58;22.80;84.60
14359;DHT22;7263;49.418;11.064;2023-06-14T12:46:30;22.80;83.00
14359;DHT22;7263;49.418;11.064;2023-06-14T12:48:58;22.80;83.10
14359;DHT22;7263;49.418;11.064;2023-06-14T12:51:25;22.70;82.60
14359;DHT22;7263;49.418;11.064;2023-06-14T12:53:56;22.70;84.00
14359;DHT22;7263;49.418;11.064;2023-06-14T12:56:26;22.80;83.90
14359;DHT22;7263;49.418;11.064;2023-06-14T12:58:53;22.80;83.70
14359;DHT22;7263;49.418;11.064;2023-06-14T13:01:20;22.90;82.70
14359;DHT22;7263;49.418;11.064;2023-06-14T13:03:47;22.80;83.50
14359;DHT22;7263;49.418;11.064;2023-06-14T13:06:15;22.90;82.70
14359;DHT22;7263;49.418;11.064;2023-06-14T13:08:49;23.10;81.00
14359;DHT22;7263;49.418;11.064;2023-06-14T13:11:17;23.30;81.30
14359;DHT22;7263;49.418;11.064;2023-06-14T13:13:47;23.30;80.10
14359;DHT22;7263;49.418;11.064;2023-06-14T13:16:21;23.40;79.90
14359;DHT22;7263;49.418;11.064;2023-06-14T13:18:48;23.40;79.70
14359;DHT22;7263;49.418;11.064;2023-06-14T13:21:17;23.50;78.60
14359;DHT22;7263;49.418;11.064;2023-06-14T13:23:44;23.70;79.50
14359;DHT22;7263;49.418;11.064;2023-06-14T13:26:11;23.90;80.30
14359;DHT22;7263;49.418;11.064;2023-06-14T13:28:39;24.10;79.70
14359;DHT22;7263;49.418;11.064;2023-06-14T13:31:08;24.20;78.90
14359;DHT22;7263;49.418;11.064;2023-06-14T13:33:35;24.20;78.40
14359;DHT22;7263;49.418;11.064;2023-06-14T13:36:02;24.10;77.90
14359;DHT22;7263;49.418;11.064;2023-06-14T13:38:29;23.80;78.10
14359;DHT22;7263;49.418;11.064;2023-06-14T13:41:00;23.70;77.60
14359;DHT22;7263;49.418;11.064;2023-06-14T13:43:29;23.70;76.40
14359;DHT22;7263;49.418;11.064;2023-06-14T13:45:57;23.80;78.70
14359;DHT22;7263;49.418;11.064;2023-06-14T13:48:26;24.00;78.90
14359;DHT22;7263;49.418;11.064;2023-06-14T13:50:53;24.00;80.50
14359;DHT22;7263;49.418;11.064;2023-06-14T13:53:20;23.80;80.40
14359;DHT22;7263;49.418;11.064;2023-06-14T13:55:46;23.80;81.20
14359;DHT22;7263;49.418;11.064;2023-06-14T13:58:13;23.70;81.70
14359;DHT22;7263;49.418;11.064;2023-06-14T14:00:41;23.50;81.80
14359;DHT22;7263;49.418;11.064;2023-06-14T14:03:09;23.50;81.10
14359;DHT22;7263;49.418;11.064;2023-06-14T14:05:36;23.30;80.70
14359;DHT22;7263;49.418;11.064;2023-06-14T14:08:05;23.20;81.10
14359;DHT22;7263;49.418;11.064;2023-06-14T14:10:38;23.20;80.60
14359;DHT22;7263;49.418;11.064;2023-06-14T14:13:05;23.20;81.30
14359;DHT22;7263;49.418;11.064;2023-06-14T14:15:34;23.20;81.30
14359;DHT22;7263;49.418;11.064;2023-06-14T14:18:01;23.20;79.90
14359;DHT22;7263;49.418;11.064;2023-06-14T14:20:31;23.20;82.20
14359;DHT22;7263;49.418;11.064;2023-06-14T14:22:58;23.30;80.10
14359;DHT22;7263;49.418;11.064;2023-06-14T14:25:25;23.30;81.00
14359;DHT22;7263;49.418;11.064;2023-06-14T14:27:54;23.40;80.90
14359;DHT22;7263;49.418;11.064;2023-06-14T14:30:22;23.60;81.70
14359;DHT22;7263;49.418;11.064;2023-06-14T14:32:49;23.70;80.30
14359;DHT22;7263;49.418;11.064;2023-06-14T14:35:16;23.60;78.90
14359;DHT22;7263;49.418;11.064;2023-06-14T14:37:44;23.60;79.30
14359;DHT22;7263;49.418;11.064;2023-06-14T14:40:12;23.70;79.20
14359;DHT22;7263;49.418;11.064;2023-06-14T14:42:41;23.70;79.60
14359;DHT22;7263;49.418;11.064;2023-06-14T14:45:09;23.80;80.30
14359;DHT22;7263;49.418;11.064;2023-06-14T14:47:36;23.70;80.40
14359;DHT22;7263;49.418;11.064;2023-06-14T14:50:03;23.70;80.70
14359;DHT22;7263;49.418;11.064;2023-06-14T14:52:30;23.80;80.70
14359;DHT22;7263;49.418;11.064;2023-06-14T14:55:00;23.70;80.50
14359;DHT22;7263;49.418;11.064;2023-06-14T14:57:29;23.60;79.90
14359;DHT22;7263;49.418;11.064;2023-06-14T14:59:56;23.60;79.80
14359;DHT22;7263;49.418;11.064;2023-06-14T15:02:26;23.50;79.40
14359;DHT22;7263;49.418;11.064;2023-06-14T15:04:53;23.50;80.40
14359;DHT22;7263;49.418;11.064;2023-06-14T15:07:19;23.80;80.50
14359;DHT22;7263;49.418;11.064;2023-06-14T15:09:46;24.20;79.90
14359;DHT22;7263;49.418;11.064;2023-06-14T15:12:17;24.20;79.30
14359;DHT22;7263;49.418;11.064;2023-06-14T15:14:49;24.30;79.90
14359;DHT22;7263;49.418;11.064;2023-06-14T15:17:21;24.40;79.50
14359;DHT22;7263;49.418;11.064;2023-06-14T15:19:49;24.50;79.30
14359;DHT22;7263;49.418;11.064;2023-06-14T15:22:16;24.60;78.50
14359;DHT22;7263;49.418;11.064;2023-06-14T15:24:43;24.50;78.50
14359;DHT22;7263;49.418;11.064;2023-06-14T15:27:15;24.00;78.50
14359;DHT22;7263;49.418;11.064;2023-06-14T15:29:44;24.00;79.10
14359;DHT22;7263;49.418;11.064;2023-06-14T15:32:13;23.70;78.80
14359;DHT22;7263;49.418;11.064;2023-06-14T15:34:43;23.30;77.80
14359;DHT22;7263;49.418;11.064;2023-06-14T15:37:09;23.10;77.80
14359;DHT22;7263;49.418;11.064;2023-06-14T15:39:36;23.00;79.20
14359;DHT22;7263;49.418;11.064;2023-06-14T15:42:09;22.90;80.40
14359;DHT22;7263;49.418;11.064;2023-06-14T15:44:37;22.90;80.10
14359;DHT22;7263;49.418;11.064;2023-06-14T15:47:05;22.90;80.00
14359;DHT22;7263;49.418;11.064;2023-06-14T15:49:32;22.80;79.70
14359;DHT22;7263;49.418;11.064;2023-06-14T15:52:05;22.80;80.70
14359;DHT22;7263;49.418;11.064;2023-06-14T15:54:32;22.70;81.10
14359;DHT22;7263;49.418;11.064;2023-06-14T15:56:59;22.70;80.70
14359;DHT22;7263;49.418;11.064;2023-06-14T15:59:26;22.70;79.40
14359;DHT22;7263;49.418;11.064;2023-06-14T16:01:53;22.80;81.10
14359;DHT22;7263;49.418;11.064;2023-06-14T16:04:22;22.80;80.50
14359;DHT22;7263;49.418;11.064;2023-06-14T16:06:48;22.80;80.40
14359;DHT22;7263;49.418;11.064;2023-06-14T16:09:15;22.80;80.00
14359;DHT22;7263;49.418;11.064;2023-06-14T16:11:42;22.80;79.50
14359;DHT22;7263;49.418;11.064;2023-06-14T16:14:17;22.80;78.20
14359;DHT22;7263;49.418;11.064;2023-06-14T16:16:46;22.70;78.60
14359;DHT22;7263;49.418;11.064;2023-06-14T16:19:13;22.70;78.40
14359;DHT22;7263;49.418;11.064;2023-06-14T16:21:44;22.60;79.30
14359;DHT22;7263;49.418;11.064;2023-06-14T16:24:10;22.60;78.60
14359;DHT22;7263;49.418;11.064;2023-06-14T16:26:39;22.60;79.50
14359;DHT22;7263;49.418;11.064;2023-06-14T16:29:06;22.60;79.50
14359;DHT22;7263;49.418;11.064;2023-06-14T16:31:33;22.60;81.30
14359;DHT22;7263;49.418;11.064;2023-06-14T16:34:02;22.60;81.10
14359;DHT22;7263;49.418;11.064;2023-06-14T16:36:36;22.60;81.00